地図

経路データ

SID SEASON NUMBER BASIN SUBBASIN NAME ISO_TIME NATURE LAT LON WMO_WIND WMO_PRES WMO_AGENCY TRACK_TYPE DIST2LAND LANDFALL IFLAG USA_AGENCY USA_ATCF_ID USA_LAT USA_LON USA_RECORD USA_STATUS USA_WIND USA_PRES USA_SSHS USA_R34_NE USA_R34_SE USA_R34_SW USA_R34_NW USA_R50_NE USA_R50_SE USA_R50_SW USA_R50_NW USA_R64_NE USA_R64_SE USA_R64_SW USA_R64_NW USA_POCI USA_ROCI USA_RMW USA_EYE TOKYO_LAT TOKYO_LON TOKYO_GRADE TOKYO_WIND TOKYO_PRES TOKYO_R50_DIR TOKYO_R50_LONG TOKYO_R50_SHORT TOKYO_R30_DIR TOKYO_R30_LONG TOKYO_R30_SHORT TOKYO_LAND CMA_LAT CMA_LON CMA_CAT CMA_WIND CMA_PRES HKO_LAT HKO_LON HKO_CAT HKO_WIND HKO_PRES NEWDELHI_LAT NEWDELHI_LON NEWDELHI_GRADE NEWDELHI_WIND NEWDELHI_PRES NEWDELHI_CI NEWDELHI_DP NEWDELHI_POCI REUNION_LAT REUNION_LON REUNION_TYPE REUNION_WIND REUNION_PRES REUNION_TNUM REUNION_CI REUNION_RMW REUNION_R34_NE REUNION_R34_SE REUNION_R34_SW REUNION_R34_NW REUNION_R50_NE REUNION_R50_SE REUNION_R50_SW REUNION_R50_NW REUNION_R64_NE REUNION_R64_SE REUNION_R64_SW REUNION_R64_NW BOM_LAT BOM_LON BOM_TYPE BOM_WIND BOM_PRES BOM_TNUM BOM_CI BOM_RMW BOM_R34_NE BOM_R34_SE BOM_R34_SW BOM_R34_NW BOM_R50_NE BOM_R50_SE BOM_R50_SW BOM_R50_NW BOM_R64_NE BOM_R64_SE BOM_R64_SW BOM_R64_NW BOM_ROCI BOM_POCI BOM_EYE BOM_POS_METHOD BOM_PRES_METHOD NADI_LAT NADI_LON NADI_CAT NADI_WIND NADI_PRES WELLINGTON_LAT WELLINGTON_LON WELLINGTON_WIND WELLINGTON_PRES DS824_LAT DS824_LON DS824_STAGE DS824_WIND DS824_PRES TD9636_LAT TD9636_LON TD9636_STAGE TD9636_WIND TD9636_PRES TD9635_LAT TD9635_LON TD9635_WIND TD9635_PRES TD9635_ROCI NEUMANN_LAT NEUMANN_LON NEUMANN_CLASS NEUMANN_WIND NEUMANN_PRES MLC_LAT MLC_LON MLC_CLASS MLC_WIND MLC_PRES USA_GUST BOM_GUST BOM_GUST_PER REUNION_GUST REUNION_GUST_PER USA_SEAHGT USA_SEARAD_NE USA_SEARAD_SE USA_SEARAD_SW USA_SEARAD_NW STORM_SPEED STORM_DIR
1974267N18276 1974 109 NA CS NOT_NAMED 1974-09-23 12:00:00 TS 18.0000 -84.0000 20 hurdat_atl main 246 246 O_____________ hurdat_atl AL161974 18.0000 -84.0000 TD 20 -1 10 325
1974267N18276 1974 109 NA CS NOT_NAMED 1974-09-23 15:00:00 TS 18.4101 -84.2997 main 282 282 P_____________ AL161974 18.4101 -84.2997 TD 22 -1 10 325
1974267N18276 1974 109 NA CS NOT_NAMED 1974-09-23 18:00:00 TS 18.8000 -84.6000 25 hurdat_atl main 304 266 O_____________ hurdat_atl AL161974 18.8000 -84.6000 TD 25 -1 9 323
1974267N18276 1974 109 NA CS NOT_NAMED 1974-09-23 21:00:00 TS 19.1574 -84.9002 main 264 229 P_____________ AL161974 19.1574 -84.9002 TD 27 -1 9 321
1974267N18276 1974 109 NA CS NOT_NAMED 1974-09-24 00:00:00 TS 19.5000 -85.2000 30 hurdat_atl main 229 183 O_____________ hurdat_atl AL161974 19.5000 -85.2000 TD 30 -1 9 321
1974267N18276 1974 109 NA CS NOT_NAMED 1974-09-24 03:00:00 TS 19.8424 -85.4927 main 183 132 P_____________ AL161974 19.8424 -85.4927 TD 30 -1 9 321
1974267N18276 1974 109 NA CS NOT_NAMED 1974-09-24 06:00:00 TS 20.2000 -85.8000 30 hurdat_atl main 132 83 O_____________ hurdat_atl AL161974 20.2000 -85.8000 TD 30 -1 10 322
1974267N18276 1974 109 NA CS NOT_NAMED 1974-09-24 09:00:00 TS 20.6074 -86.1350 main 83 23 P_____________ AL161974 20.6074 -86.1350 TD 30 -1 10 321
1974267N18276 1974 109 NA CS NOT_NAMED 1974-09-24 12:00:00 TS 21.0000 -86.5000 30 hurdat_atl main 23 0 O_____________ hurdat_atl AL161974 21.0000 -86.5000 TD 30 -1 10 314
1974267N18276 1974 109 NA CS NOT_NAMED 1974-09-24 15:00:00 TS 21.3075 -86.9002 main 0 0 P_____________ AL161974 21.3075 -86.9002 TD 30 -1 10 309
1974267N18276 1974 109 NA GM NOT_NAMED 1974-09-24 18:00:00 TS 21.6000 -87.3000 30 hurdat_atl main 22 22 O_____________ hurdat_atl AL161974 21.6000 -87.3000 TD 30 -1 10 312
1974267N18276 1974 109 NA GM NOT_NAMED 1974-09-24 21:00:00 TS 21.9499 -87.6576 main 44 44 P_____________ AL161974 21.9499 -87.6576 TD 30 -1 10 317
1974267N18276 1974 109 NA GM NOT_NAMED 1974-09-25 00:00:00 TS 22.3000 -88.0000 30 hurdat_atl main 89 89 O_____________ hurdat_atl AL161974 22.3000 -88.0000 TD 30 -1 9 316
1974267N18276 1974 109 NA GM NOT_NAMED 1974-09-25 03:00:00 TS 22.6074 -88.3428 main 122 122 P_____________ AL161974 22.6074 -88.3428 TD 30 -1 9 313
1974267N18276 1974 109 NA GM NOT_NAMED 1974-09-25 06:00:00 TS 22.9000 -88.7000 30 hurdat_atl main 156 156 O_____________ hurdat_atl AL161974 22.9000 -88.7000 TD 30 -1 10 307
1974267N18276 1974 109 NA GM NOT_NAMED 1974-09-25 09:00:00 TS 23.1928 -89.1894 main 199 199 P_____________ AL161974 23.1928 -89.1894 TD 30 -1 10 309
1974267N18276 1974 109 NA GM NOT_NAMED 1974-09-25 12:00:00 TS 23.5000 -89.5000 30 hurdat_atl main 241 241 O_____________ hurdat_atl AL161974 23.5000 -89.5000 TD 30 -1 7 347
1974267N18276 1974 109 NA GM NOT_NAMED 1974-09-25 15:00:00 TS 23.8350 -89.3480 main 266 266 P_____________ AL161974 23.8350 -89.3480 TD 30 -1 8 33
1974267N18276 1974 109 NA GM NOT_NAMED 1974-09-25 18:00:00 TS 24.2000 -89.0000 30 hurdat_atl main 304 304 O_____________ hurdat_atl AL161974 24.2000 -89.0000 TD 30 -1 9 35
1974267N18276 1974 109 NA GM NOT_NAMED 1974-09-25 21:00:00 TS 24.6000 -88.7499 main 346 346 P_____________ AL161974 24.6000 -88.7499 TD 30 -1 9 30
1974267N18276 1974 109 NA GM NOT_NAMED 1974-09-26 00:00:00 TS 25.0000 -88.5000 30 hurdat_atl main 391 391 O_____________ hurdat_atl AL161974 25.0000 -88.5000 TD 30 -1 9 31
1974267N18276 1974 109 NA GM NOT_NAMED 1974-09-26 03:00:00 TS 25.3500 -88.2498 main 422 384 P_____________ AL161974 25.3500 -88.2498 TD 30 -1 8 33
1974267N18276 1974 109 NA GM NOT_NAMED 1974-09-26 06:00:00 TS 25.7000 -88.0000 30 hurdat_atl main 384 348 O_____________ hurdat_atl AL161974 25.7000 -88.0000 TD 30 -1 9 28
1974267N18276 1974 109 NA GM NOT_NAMED 1974-09-26 09:00:00 TS 26.1071 -87.7946 main 348 320 P_____________ AL161974 26.1071 -87.7946 TD 27 -1 9 29
1974267N18276 1974 109 NA GM NOT_NAMED 1974-09-26 12:00:00 TS 26.5000 -87.5000 25 hurdat_atl main 320 311 O_____________ hurdat_atl AL161974 26.5000 -87.5000 TD 25 -1 10 46
1974267N18276 1974 109 NA GM NOT_NAMED 1974-09-26 15:00:00 TS 26.8077 -86.9948 main 320 306 P_____________ AL161974 26.8077 -86.9948 TD 25 -1 12 59
1974267N18276 1974 109 NA GM NOT_NAMED 1974-09-26 18:00:00 TS 27.1000 -86.4000 25 hurdat_atl main 306 261 O_____________ hurdat_atl AL161974 27.1000 -86.4000 TD 25 -1 12 58
1974267N18276 1974 109 NA GM NOT_NAMED 1974-09-26 21:00:00 TS 27.4497 -85.8573 main 261 212 P_____________ AL161974 27.4497 -85.8573 TD 25 -1 12 54
1974267N18276 1974 109 NA GM NOT_NAMED 1974-09-27 00:00:00 TS 27.8000 -85.3000 25 hurdat_atl main 212 177 O_____________ hurdat_atl AL161974 27.8000 -85.3000 TD 25 -1 12 57
1974267N18276 1974 109 NA GM NOT_NAMED 1974-09-27 03:00:00 TS 28.1074 -84.6997 main 177 130 P_____________ AL161974 28.1074 -84.6997 TD 25 -1 12 60
1974267N18276 1974 109 NA GM NOT_NAMED 1974-09-27 06:00:00 TS 28.4000 -84.1000 25 hurdat_atl main 130 74 O_____________ hurdat_atl AL161974 28.4000 -84.1000 TD 25 -1 12 60
1974267N18276 1974 109 NA GM NOT_NAMED 1974-09-27 09:00:00 TS 28.6978 -83.5381 main 68 19 P_____________ AL161974 28.6978 -83.5381 TD -1 11 58
1974267N18276 1974 109 NA GM NOT_NAMED 1974-09-27 12:00:00 TS 29.0000 -83.0000 hurdat_atl main 19 O_____________ hurdat_atl AL161974 29.0000 -83.0000 TD -1 11 57

IBTrACS Databaseについて

本データベースは、米国NOAAが公開する1842年以降の世界の熱帯低気圧のベストトラックデータアーカイブInternational Best Track Archive for Climate Stewardship (IBTrACS)を、ウェブで閲覧しやすい形式に変換したものです。

最終更新日:2021-10-21